createdAt,value
2024-03-09T00:00:39.735Z,1.28
2024-03-09T00:03:31.332Z,1.38
2024-03-09T00:06:01.057Z,1.40
2024-03-09T00:08:28.885Z,1.10
2024-03-09T00:10:56.185Z,1.08
2024-03-09T00:13:24.109Z,1.37
2024-03-09T00:15:52.494Z,1.00
2024-03-09T00:18:29.217Z,1.35
2024-03-09T00:21:03.702Z,1.11
2024-03-09T00:23:31.354Z,0.97
2024-03-09T00:25:59.457Z,0.72
2024-03-09T00:28:30.158Z,1.24
2024-03-09T00:30:57.967Z,1.53
2024-03-09T00:33:25.843Z,1.57
2024-03-09T00:35:55.676Z,1.43
2024-03-09T00:38:23.401Z,1.24
2024-03-09T00:40:50.981Z,1.12
2024-03-09T00:43:18.207Z,1.60
2024-03-09T00:45:46.066Z,1.73
2024-03-09T00:48:14.653Z,1.86
2024-03-09T00:50:43.626Z,1.69
2024-03-09T00:53:11.059Z,1.82
2024-03-09T00:55:38.828Z,1.63
2024-03-09T00:58:08.661Z,1.44
2024-03-09T01:00:38.459Z,1.48
2024-03-09T01:03:05.897Z,1.66
2024-03-09T01:05:34.260Z,1.62
2024-03-09T01:08:02.429Z,1.69
2024-03-09T01:10:30.201Z,1.57
2024-03-09T01:12:57.696Z,1.73
2024-03-09T01:15:25.482Z,1.75
2024-03-09T01:17:53.874Z,1.60
2024-03-09T01:20:21.769Z,1.82
2024-03-09T01:22:50.550Z,1.86
2024-03-09T01:25:18.575Z,1.70
2024-03-09T01:27:46.072Z,1.84
2024-03-09T01:30:13.950Z,1.89
2024-03-09T01:32:41.750Z,1.92
2024-03-09T01:35:10.846Z,1.77
2024-03-09T01:37:38.758Z,1.50
2024-03-09T01:40:07.881Z,1.76
2024-03-09T01:42:35.392Z,1.67
2024-03-09T01:45:07.098Z,1.93
2024-03-09T01:47:35.374Z,1.83
2024-03-09T01:50:03.828Z,1.70
2024-03-09T01:52:34.520Z,1.54
2024-03-09T01:55:05.936Z,1.21
2024-03-09T01:57:36.709Z,1.60
2024-03-09T02:00:06.425Z,1.76
2024-03-09T02:02:35.099Z,1.85
2024-03-09T02:05:12.143Z,1.93
2024-03-09T02:07:41.841Z,2.05
2024-03-09T02:10:13.428Z,2.04
2024-03-09T02:12:44.132Z,2.07
2024-03-09T02:15:19.023Z,1.93
2024-03-09T02:17:49.426Z,1.99
2024-03-09T02:20:18.889Z,1.34
2024-03-09T02:22:48.823Z,1.62
2024-03-09T02:25:19.723Z,1.76
2024-03-09T02:27:47.410Z,1.85
2024-03-09T02:30:15.340Z,1.80
2024-03-09T02:32:44.156Z,1.88
2024-03-09T02:35:12.260Z,0.84
2024-03-09T02:37:40.421Z,0.80
2024-03-09T02:40:08.941Z,1.13
2024-03-09T02:42:40.425Z,1.56
2024-03-09T02:45:08.843Z,1.58
2024-03-09T02:47:36.403Z,1.72
2024-03-09T02:50:05.155Z,1.77
2024-03-09T02:52:32.672Z,1.69
2024-03-09T02:55:00.396Z,1.70
2024-03-09T02:57:27.910Z,1.73
2024-03-09T02:59:55.549Z,1.88
2024-03-09T03:02:41.500Z,1.85
2024-03-09T03:05:09.681Z,1.86
2024-03-09T03:07:37.109Z,1.71
2024-03-09T03:10:05.033Z,1.85
2024-03-09T03:12:32.567Z,1.97
2024-03-09T03:15:01.001Z,1.90
2024-03-09T03:17:28.526Z,1.94
2024-03-09T03:19:56.235Z,2.09
2024-03-09T03:22:25.573Z,2.07
2024-03-09T03:24:53.187Z,2.02
2024-03-09T03:27:22.732Z,2.19
2024-03-09T03:29:52.412Z,2.19
2024-03-09T03:32:19.869Z,2.19
2024-03-09T03:34:48.322Z,2.26
2024-03-09T03:37:19.343Z,1.98
2024-03-09T03:39:47.031Z,2.12
2024-03-09T03:42:14.628Z,2.12
2024-03-09T03:44:43.372Z,2.21
2024-03-09T03:47:10.641Z,2.15
2024-03-09T03:49:38.238Z,2.30
2024-03-09T03:52:05.695Z,1.94
2024-03-09T03:54:33.317Z,2.12
2024-03-09T03:57:00.642Z,1.62
2024-03-09T03:59:28.418Z,1.42
2024-03-09T04:01:55.865Z,1.62
2024-03-09T04:04:23.456Z,1.96
2024-03-09T04:06:51.079Z,1.97
2024-03-09T04:09:18.985Z,2.08
2024-03-09T04:11:50.709Z,1.97
2024-03-09T04:14:18.698Z,2.11
2024-03-09T04:16:46.501Z,2.08
2024-03-09T04:19:15.109Z,1.87
2024-03-09T04:21:42.455Z,2.01
2024-03-09T04:24:11.107Z,1.05
2024-03-09T04:26:38.681Z,1.65
2024-03-09T04:29:06.665Z,1.78
2024-03-09T04:31:34.371Z,1.90
2024-03-09T04:34:03.932Z,1.19
2024-03-09T04:36:31.254Z,1.64
2024-03-09T04:39:02.333Z,1.79
2024-03-09T04:41:30.237Z,1.97
2024-03-09T04:43:57.899Z,1.74
2024-03-09T04:46:25.330Z,1.86
2024-03-09T04:48:52.993Z,1.16
2024-03-09T04:51:20.496Z,1.76
2024-03-09T04:53:48.380Z,1.94
2024-03-09T04:56:16.263Z,1.86
2024-03-09T04:58:44.013Z,1.95
2024-03-09T05:01:11.709Z,1.47
2024-03-09T05:03:39.288Z,1.71
2024-03-09T05:06:07.477Z,2.01
2024-03-09T05:08:35.179Z,2.14
2024-03-09T05:11:02.625Z,1.79
2024-03-09T05:13:30.469Z,1.80
2024-03-09T05:15:57.910Z,1.22
2024-03-09T05:18:25.704Z,1.57
2024-03-09T05:20:53.252Z,1.89
2024-03-09T05:23:22.041Z,1.83
2024-03-09T05:25:49.694Z,1.98
2024-03-09T05:28:21.386Z,1.94
2024-03-09T05:30:48.819Z,2.12
2024-03-09T05:33:16.607Z,2.11
2024-03-09T05:35:44.228Z,2.09
2024-03-09T05:38:12.198Z,2.28
2024-03-09T05:40:39.894Z,2.04
2024-03-09T05:43:13.629Z,1.55
2024-03-09T05:45:42.692Z,0.74
2024-03-09T05:48:12.395Z,0.76
2024-03-09T05:50:40.242Z,0.75
2024-03-09T05:53:10.034Z,1.16
2024-03-09T05:55:40.491Z,1.68
2024-03-09T05:58:08.873Z,1.94
2024-03-09T06:00:37.527Z,2.00
2024-03-09T06:03:09.263Z,1.26
2024-03-09T06:05:37.197Z,1.51
2024-03-09T06:08:05.413Z,1.71
2024-03-09T06:10:36.503Z,1.35
2024-03-09T06:13:06.836Z,1.70
2024-03-09T06:15:34.668Z,1.73
2024-03-09T06:18:02.852Z,2.25
2024-03-09T06:20:33.400Z,2.18
2024-03-09T06:23:01.943Z,2.52
2024-03-09T06:25:31.175Z,1.36
2024-03-09T06:28:04.352Z,2.18
2024-03-09T06:30:33.342Z,1.39
2024-03-09T06:33:03.603Z,1.13
2024-03-09T06:35:33.766Z,1.82
2024-03-09T06:38:03.403Z,1.81
2024-03-09T06:40:33.564Z,2.08
2024-03-09T06:43:03.078Z,1.08
2024-03-09T06:45:30.626Z,1.68
2024-03-09T06:47:59.467Z,1.18
2024-03-09T06:50:31.341Z,0.85
2024-03-09T06:53:02.490Z,1.39
2024-03-09T06:55:31.097Z,2.18
2024-03-09T06:58:04.134Z,2.08
2024-03-09T07:00:36.332Z,2.37
2024-03-09T07:03:08.644Z,2.93
2024-03-09T07:05:37.351Z,3.15
2024-03-09T07:08:07.417Z,2.75
2024-03-09T07:10:37.481Z,2.29
2024-03-09T07:13:08.554Z,2.36
2024-03-09T07:15:37.337Z,2.72
2024-03-09T07:18:12.298Z,2.54
2024-03-09T07:20:40.728Z,2.75
2024-03-09T07:23:08.621Z,2.17
2024-03-09T07:25:36.804Z,2.20
2024-03-09T07:28:04.819Z,1.98
2024-03-09T07:30:34.447Z,1.89
2024-03-09T07:33:03.304Z,2.52
2024-03-09T07:35:31.703Z,2.10
2024-03-09T07:38:03.288Z,1.97
2024-03-09T07:40:31.716Z,2.99
2024-03-09T07:42:59.564Z,3.17
2024-03-09T07:45:31.502Z,3.11
2024-03-09T07:48:00.854Z,3.82
2024-03-09T07:50:29.460Z,3.99
2024-03-09T07:52:58.757Z,3.77
2024-03-09T07:55:28.374Z,1.67
2024-03-09T07:58:09.692Z,2.56
2024-03-09T08:00:46.969Z,3.52
2024-03-09T08:03:15.554Z,4.11
2024-03-09T08:05:43.717Z,2.42
2024-03-09T08:08:14.221Z,3.36
2024-03-09T08:10:48.874Z,2.98
2024-03-09T08:13:21.321Z,3.70
2024-03-09T08:15:48.987Z,3.89
2024-03-09T08:18:17.330Z,3.97
2024-03-09T08:20:44.747Z,2.57
2024-03-09T08:23:14.015Z,3.70
2024-03-09T08:25:43.775Z,4.29
2024-03-09T08:28:11.758Z,3.78
2024-03-09T08:30:39.411Z,4.11
2024-03-09T08:33:07.370Z,4.40
2024-03-09T08:35:35.032Z,4.25
2024-03-09T08:38:03.043Z,4.11
2024-03-09T08:40:33.656Z,4.06
2024-03-09T08:43:01.705Z,4.01
2024-03-09T08:45:30.765Z,5.30
2024-03-09T08:47:59.012Z,7.57
2024-03-09T08:50:27.140Z,7.72
2024-03-09T08:52:57.131Z,5.03
2024-03-09T08:55:25.292Z,7.01
2024-03-09T08:57:53.228Z,7.39
2024-03-09T09:00:24.445Z,8.49
2024-03-09T09:02:52.644Z,9.35
2024-03-09T09:05:23.026Z,9.30
2024-03-09T09:07:53.123Z,9.86
2024-03-09T09:10:24.068Z,8.97
2024-03-09T09:12:51.787Z,8.79
2024-03-09T09:15:20.697Z,8.84
2024-03-09T09:17:50.495Z,8.64
2024-03-09T09:20:20.844Z,7.14
2024-03-09T09:22:49.870Z,8.91
2024-03-09T09:25:20.886Z,11.13
2024-03-09T09:27:48.535Z,11.41
2024-03-09T09:30:16.257Z,11.09
2024-03-09T09:32:44.966Z,12.71
2024-03-09T09:35:13.910Z,13.11
2024-03-09T09:37:41.998Z,15.19
2024-03-09T09:40:10.313Z,14.67
2024-03-09T09:42:38.690Z,14.54
2024-03-09T09:45:06.910Z,15.88
2024-03-09T09:47:35.590Z,14.89
2024-03-09T09:50:03.968Z,14.41
2024-03-09T09:52:34.369Z,10.74
2024-03-09T09:55:03.552Z,13.60
2024-03-09T09:57:33.170Z,15.18
2024-03-09T10:00:00.832Z,15.80
2024-03-09T10:02:28.952Z,13.71
2024-03-09T10:04:57.141Z,14.64
2024-03-09T10:07:25.995Z,15.69
2024-03-09T10:09:53.514Z,15.95
2024-03-09T10:12:25.115Z,14.51
2024-03-09T10:14:53.738Z,15.28
2024-03-09T10:17:22.503Z,15.35
2024-03-09T10:19:50.633Z,14.29
2024-03-09T10:22:18.417Z,11.00
2024-03-09T10:24:57.752Z,9.00
2024-03-09T10:27:29.133Z,10.32
2024-03-09T10:30:12.903Z,9.01
2024-03-09T10:32:45.009Z,9.34
2024-03-09T10:35:13.893Z,10.07
2024-03-09T10:37:44.162Z,9.23
2024-03-09T10:40:16.300Z,7.03
2024-03-09T10:42:47.525Z,8.31
2024-03-09T10:45:17.538Z,9.56
2024-03-09T10:47:51.468Z,8.46
2024-03-09T10:50:25.135Z,9.48
2024-03-09T10:53:11.722Z,9.00
2024-03-09T10:56:01.123Z,7.60
2024-03-09T10:58:30.146Z,7.53
2024-03-09T11:00:58.067Z,7.52
2024-03-09T11:03:27.987Z,7.71
2024-03-09T11:05:56.107Z,8.30
2024-03-09T11:08:25.013Z,8.31
2024-03-09T11:10:53.216Z,8.18
2024-03-09T11:13:21.595Z,9.48
2024-03-09T11:15:53.639Z,9.13
2024-03-09T11:18:24.150Z,9.59
2024-03-09T11:20:53.813Z,9.43
2024-03-09T11:23:24.941Z,7.82
2024-03-09T11:25:57.122Z,7.41
2024-03-09T11:28:33.991Z,7.50
2024-03-09T11:31:15.845Z,5.73
2024-03-09T11:33:51.503Z,5.74
2024-03-09T11:36:40.348Z,6.10
2024-03-09T11:39:09.094Z,6.98
2024-03-09T11:41:39.834Z,6.01
2024-03-09T11:44:07.725Z,5.90
2024-03-09T11:46:38.578Z,5.72
2024-03-09T11:49:07.156Z,4.90
2024-03-09T11:51:36.460Z,5.02
2024-03-09T11:54:17.068Z,5.02
2024-03-09T11:56:44.476Z,5.15
2024-03-09T11:59:13.988Z,5.06
2024-03-09T12:01:41.810Z,4.50
2024-03-09T12:04:11.333Z,4.54
2024-03-09T12:06:41.908Z,4.81
2024-03-09T12:09:12.675Z,5.14
2024-03-09T12:11:47.763Z,4.74
2024-03-09T12:14:17.472Z,4.63
2024-03-09T12:16:50.248Z,4.64
2024-03-09T12:19:18.925Z,4.80
2024-03-09T12:21:46.799Z,5.46
2024-03-09T12:24:15.232Z,4.56
2024-03-09T12:26:42.982Z,4.61
2024-03-09T12:29:14.149Z,5.36
2024-03-09T12:31:44.382Z,5.04
2024-03-09T12:34:12.553Z,4.11
2024-03-09T12:36:53.608Z,4.55
2024-03-09T12:39:21.891Z,4.12
2024-03-09T12:41:54.889Z,4.60
2024-03-09T12:44:24.132Z,4.03
2024-03-09T12:46:51.825Z,4.43
2024-03-09T12:49:20.260Z,4.04
2024-03-09T12:51:53.181Z,4.34
2024-03-09T12:54:21.340Z,3.78
2024-03-09T12:56:50.778Z,3.51
2024-03-09T12:59:28.334Z,3.55
2024-03-09T13:01:57.106Z,3.59
2024-03-09T13:04:27.392Z,3.08
2024-03-09T13:06:58.367Z,3.28
2024-03-09T13:09:34.204Z,3.63
2024-03-09T13:12:06.541Z,4.01
2024-03-09T13:14:38.470Z,4.05
2024-03-09T13:17:07.553Z,3.34
2024-03-09T13:19:38.375Z,3.02
2024-03-09T13:22:08.090Z,3.22
2024-03-09T13:24:36.747Z,3.16
2024-03-09T13:27:04.240Z,3.63
2024-03-09T13:29:32.436Z,3.38
2024-03-09T13:32:00.667Z,3.40
2024-03-09T13:34:32.362Z,3.48
2024-03-09T13:37:01.040Z,3.36
2024-03-09T13:39:29.566Z,3.21
2024-03-09T13:41:58.906Z,3.40
2024-03-09T13:44:26.762Z,3.69
2024-03-09T13:46:54.356Z,3.78
2024-03-09T13:49:22.169Z,3.94
2024-03-09T13:51:49.866Z,3.89
2024-03-09T13:54:19.723Z,2.98
2024-03-09T13:56:47.986Z,3.04
2024-03-09T13:59:16.835Z,3.05
2024-03-09T14:01:46.204Z,2.56
2024-03-09T14:04:15.549Z,2.80
2024-03-09T14:06:57.347Z,3.37
2024-03-09T14:09:33.775Z,2.81
2024-03-09T14:12:01.612Z,2.17
2024-03-09T14:14:29.774Z,2.68
2024-03-09T14:16:57.484Z,2.58
2024-03-09T14:19:25.296Z,2.78
2024-03-09T14:21:54.484Z,2.73
2024-03-09T14:24:22.210Z,2.16
2024-03-09T14:26:49.728Z,2.14
2024-03-09T14:29:21.717Z,2.86
2024-03-09T14:31:50.766Z,3.33
2024-03-09T14:34:20.195Z,3.49
2024-03-09T14:36:47.826Z,3.53
2024-03-09T14:39:18.846Z,3.93
2024-03-09T14:41:46.788Z,4.21
2024-03-09T14:44:14.689Z,3.51
2024-03-09T14:46:42.398Z,3.31
2024-03-09T14:49:10.902Z,3.62
2024-03-09T14:51:40.678Z,3.81
2024-03-09T14:54:08.398Z,3.86
2024-03-09T14:56:35.854Z,3.57
2024-03-09T14:59:11.914Z,3.34
2024-03-09T15:01:39.546Z,3.29
2024-03-09T15:04:10.085Z,2.99
2024-03-09T15:06:37.864Z,2.81
2024-03-09T15:09:10.220Z,2.88
2024-03-09T15:11:37.826Z,2.81
2024-03-09T15:14:06.209Z,2.66
2024-03-09T15:16:33.759Z,2.66
2024-03-09T15:19:01.399Z,3.20
2024-03-09T15:21:28.899Z,2.75
2024-03-09T15:23:58.813Z,2.77
2024-03-09T15:26:30.171Z,3.07
2024-03-09T15:28:59.848Z,3.14
2024-03-09T15:31:28.591Z,3.03
2024-03-09T15:33:57.051Z,2.62
2024-03-09T15:36:25.708Z,2.34
2024-03-09T15:38:55.641Z,2.54
2024-03-09T15:41:23.604Z,2.25
2024-03-09T15:43:51.592Z,2.34
2024-03-09T15:46:20.220Z,2.27
2024-03-09T15:48:49.888Z,2.45
2024-03-09T15:51:19.915Z,2.67
2024-03-09T15:53:48.171Z,3.02
2024-03-09T15:56:21.614Z,2.85
2024-03-09T15:58:50.970Z,2.92
2024-03-09T16:01:23.457Z,2.76
2024-03-09T16:03:52.707Z,3.07
2024-03-09T16:06:20.257Z,3.15
2024-03-09T16:08:48.230Z,3.42
2024-03-09T16:11:16.039Z,3.59
2024-03-09T16:13:43.985Z,3.50
2024-03-09T16:16:15.383Z,3.73
2024-03-09T16:18:43.705Z,3.99
2024-03-09T16:21:11.350Z,3.81
2024-03-09T16:23:41.256Z,3.89
2024-03-09T16:26:09.738Z,3.51
2024-03-09T16:28:37.979Z,3.49
2024-03-09T16:31:06.389Z,3.58
2024-03-09T16:33:34.796Z,3.70
2024-03-09T16:36:03.785Z,3.50
2024-03-09T16:38:33.059Z,3.48
2024-03-09T16:41:03.020Z,3.63
2024-03-09T16:43:35.090Z,3.62
2024-03-09T16:46:07.708Z,3.35
2024-03-09T16:48:37.138Z,3.38
2024-03-09T16:51:09.260Z,3.56
2024-03-09T16:53:41.135Z,3.57
2024-03-09T16:56:10.913Z,3.49
2024-03-09T16:58:40.891Z,3.51
2024-03-09T17:01:08.977Z,3.34
2024-03-09T17:03:36.679Z,3.45
2024-03-09T17:06:04.454Z,3.34
2024-03-09T17:08:32.378Z,3.23
2024-03-09T17:11:00.123Z,3.33
2024-03-09T17:13:28.465Z,3.26
2024-03-09T17:15:59.835Z,3.29
2024-03-09T17:18:29.312Z,3.20
2024-03-09T17:20:56.677Z,3.19
2024-03-09T17:23:28.718Z,3.20
2024-03-09T17:25:56.334Z,3.04
2024-03-09T17:28:24.263Z,3.18
2024-03-09T17:30:51.979Z,3.27
2024-03-09T17:33:19.751Z,3.23
2024-03-09T17:35:47.204Z,3.26
2024-03-09T17:38:15.034Z,3.29
2024-03-09T17:40:48.593Z,3.31
2024-03-09T17:43:17.514Z,3.35
2024-03-09T17:45:46.924Z,3.36
2024-03-09T17:48:15.134Z,3.36
2024-03-09T17:50:43.450Z,3.32
2024-03-09T17:53:11.464Z,3.42
2024-03-09T17:55:39.402Z,3.35
2024-03-09T17:58:10.566Z,3.34
2024-03-09T18:00:40.126Z,3.39
2024-03-09T18:03:15.064Z,3.33
2024-03-09T18:05:42.690Z,3.46
2024-03-09T18:08:11.465Z,3.53
2024-03-09T18:10:41.753Z,3.55
2024-03-09T18:13:14.678Z,3.44
2024-03-09T18:15:45.467Z,3.44
2024-03-09T18:18:14.621Z,3.42
2024-03-09T18:20:43.576Z,3.48
2024-03-09T18:23:12.566Z,3.56
2024-03-09T18:25:41.092Z,3.61
2024-03-09T18:28:13.583Z,3.53
2024-03-09T18:30:41.116Z,3.48
2024-03-09T18:33:14.412Z,3.51
2024-03-09T18:35:43.444Z,3.52
2024-03-09T18:38:15.449Z,3.54
2024-03-09T18:40:43.180Z,3.56
2024-03-09T18:43:11.027Z,3.62
2024-03-09T18:45:38.431Z,3.39
2024-03-09T18:48:06.497Z,3.40
2024-03-09T18:50:34.125Z,3.46
2024-03-09T18:53:03.259Z,3.67
2024-03-09T18:55:31.879Z,3.48
2024-03-09T18:58:01.231Z,3.55
2024-03-09T19:00:32.741Z,3.64
2024-03-09T19:03:01.729Z,3.61
2024-03-09T19:05:30.215Z,3.48
2024-03-09T19:08:01.164Z,3.32
2024-03-09T19:10:29.330Z,3.56
2024-03-09T19:12:57.150Z,3.57
2024-03-09T19:15:27.090Z,3.52
2024-03-09T19:17:55.629Z,3.51
2024-03-09T19:20:35.374Z,3.44
2024-03-09T19:23:04.205Z,3.54
2024-03-09T19:25:32.207Z,3.47
2024-03-09T19:28:00.267Z,3.43
2024-03-09T19:30:30.830Z,3.52
2024-03-09T19:32:59.763Z,3.49
2024-03-09T19:35:29.342Z,3.52
2024-03-09T19:37:59.624Z,3.47
2024-03-09T19:40:28.558Z,3.37
2024-03-09T19:42:59.215Z,3.49
2024-03-09T19:45:31.578Z,3.52
2024-03-09T19:48:00.387Z,3.53
2024-03-09T19:50:33.286Z,3.44
2024-03-09T19:53:01.149Z,3.36
2024-03-09T19:55:30.808Z,3.42
2024-03-09T19:58:00.343Z,3.40
2024-03-09T20:00:33.080Z,3.55
2024-03-09T20:03:01.335Z,3.52
2024-03-09T20:05:37.844Z,3.47
2024-03-09T20:08:06.014Z,3.51
2024-03-09T20:10:34.086Z,3.38
2024-03-09T20:13:02.100Z,3.44
2024-03-09T20:15:30.278Z,3.22
2024-03-09T20:17:59.444Z,3.32
2024-03-09T20:20:29.068Z,3.35
2024-03-09T20:23:01.734Z,3.35
2024-03-09T20:25:29.383Z,3.29
2024-03-09T20:27:57.209Z,3.34
2024-03-09T20:30:25.540Z,3.35
2024-03-09T20:32:53.801Z,3.31
2024-03-09T20:35:21.589Z,3.34
2024-03-09T20:37:49.796Z,3.35
2024-03-09T20:40:19.208Z,3.32
2024-03-09T20:42:53.091Z,3.27
2024-03-09T20:45:22.772Z,3.32
2024-03-09T20:47:51.112Z,3.35
2024-03-09T20:50:22.099Z,3.33
2024-03-09T20:53:00.164Z,3.21
2024-03-09T20:55:31.320Z,3.25
2024-03-09T20:57:59.329Z,3.20
2024-03-09T21:00:29.476Z,3.28
2024-03-09T21:02:58.984Z,3.20
2024-03-09T21:05:26.607Z,3.19
2024-03-09T21:07:54.449Z,3.22
2024-03-09T21:10:23.250Z,3.15
2024-03-09T21:12:51.079Z,3.20
2024-03-09T21:15:19.683Z,3.11
2024-03-09T21:17:48.739Z,3.24
2024-03-09T21:20:17.726Z,3.10
2024-03-09T21:22:46.142Z,3.05
2024-03-09T21:25:14.823Z,3.13
2024-03-09T21:27:44.486Z,3.27
2024-03-09T21:30:15.954Z,3.36
2024-03-09T21:32:48.643Z,3.30
2024-03-09T21:35:17.353Z,3.47
2024-03-09T21:37:47.520Z,3.20
2024-03-09T21:40:16.852Z,3.29
2024-03-09T21:42:45.743Z,3.33
2024-03-09T21:45:15.482Z,3.46
2024-03-09T21:47:47.492Z,3.18
2024-03-09T21:50:18.270Z,3.25
2024-03-09T21:52:50.087Z,3.45
2024-03-09T21:55:17.728Z,3.13
2024-03-09T21:57:45.821Z,3.26
2024-03-09T22:00:24.044Z,3.47
2024-03-09T22:02:58.332Z,3.34
2024-03-09T22:05:27.746Z,3.33
2024-03-09T22:07:58.029Z,3.55
2024-03-09T22:10:26.954Z,3.51
2024-03-09T22:12:57.226Z,3.53
2024-03-09T22:15:28.552Z,3.59
2024-03-09T22:17:57.504Z,3.49
2024-03-09T22:20:25.855Z,3.33
2024-03-09T22:22:54.085Z,3.31
2024-03-09T22:25:21.615Z,3.21
2024-03-09T22:27:50.350Z,3.27
2024-03-09T22:30:18.570Z,3.33
2024-03-09T22:32:47.113Z,3.26
2024-03-09T22:35:16.368Z,3.27
2024-03-09T22:37:45.691Z,3.09
2024-03-09T22:40:17.326Z,3.34
2024-03-09T22:42:45.678Z,3.43
2024-03-09T22:45:16.590Z,3.44
2024-03-09T22:47:46.533Z,3.44
2024-03-09T22:50:26.958Z,3.29
2024-03-09T22:52:55.868Z,3.16
2024-03-09T22:55:25.449Z,3.21
2024-03-09T22:57:53.326Z,3.30
2024-03-09T23:00:20.835Z,3.21
2024-03-09T23:02:48.501Z,3.10
2024-03-09T23:05:16.992Z,3.00
2024-03-09T23:07:48.136Z,2.84
2024-03-09T23:10:15.585Z,2.84
2024-03-09T23:12:45.498Z,2.98
2024-03-09T23:15:17.293Z,2.48
2024-03-09T23:17:53.409Z,2.74
2024-03-09T23:20:28.820Z,2.81
2024-03-09T23:22:59.604Z,2.85
2024-03-09T23:25:27.883Z,2.81
2024-03-09T23:27:56.169Z,2.83
2024-03-09T23:30:26.071Z,2.76
2024-03-09T23:32:56.104Z,2.91
2024-03-09T23:35:24.630Z,2.82
2024-03-09T23:37:52.677Z,2.73
2024-03-09T23:40:21.675Z,2.76
2024-03-09T23:42:49.861Z,2.69
2024-03-09T23:45:18.098Z,2.63
2024-03-09T23:47:46.987Z,2.72
2024-03-09T23:50:18.745Z,2.56
2024-03-09T23:52:50.162Z,2.64
2024-03-09T23:55:19.477Z,2.41
2024-03-09T23:57:49.165Z,2.62
